Time;durP1;ratioP1;P1;durP2;ratioP2;P2;SDS_P1;SDS_P2;PMS_P1;PMS_P2;Temp;Humidity;BMP_temperature;BMP_pressure;BME280_temperature;BME280_humidity;BME280_pressure;Samples;Min_cycle;Max_cycle;Signal;HPM_P1;HPM_P2
2021/12/08 00:01:30;;;;;;;2.00;1.40;;;4.70;99.90;;;;;;5004760;28;20579;-76
2021/12/08 00:03:57;;;;;;;2.63;1.57;;;4.70;99.90;;;;;;5005499;28;20203;-76
2021/12/08 00:06:24;;;;;;;1.70;1.23;;;4.80;99.90;;;;;;5011599;28;20223;-76
2021/12/08 00:09:06;;;;;;;6.17;1.90;;;4.80;99.90;;;;;;5012289;28;20203;-76
2021/12/08 00:14:27;;;;;;;2.57;1.83;;;4.80;99.90;;;;;;5010723;28;20206;-76
2021/12/08 00:16:54;;;;;;;3.10;1.90;;;4.90;99.90;;;;;;5008299;28;20219;-75
2021/12/08 00:19:21;;;;;;;3.07;2.00;;;4.80;99.90;;;;;;5014068;28;20200;-76
2021/12/08 00:21:49;;;;;;;4.23;1.50;;;4.80;99.90;;;;;;5005201;28;20230;-76
2021/12/08 00:24:16;;;;;;;1.50;1.40;;;4.80;99.90;;;;;;5017144;28;20203;-75
2021/12/08 00:26:43;;;;;;;1.60;1.50;;;4.90;99.90;;;;;;5022563;28;20234;-76
2021/12/08 00:29:11;;;;;;;2.33;1.40;;;4.90;99.90;;;;;;5010211;28;20196;-76
2021/12/08 00:31:40;;;;;;;1.70;1.37;;;5.00;99.90;;;;;;5011752;28;20216;-76
2021/12/08 00:34:08;;;;;;;3.77;1.93;;;5.00;99.90;;;;;;5009481;28;20524;-76
2021/12/08 00:36:42;;;;;;;3.77;1.27;;;5.10;99.90;;;;;;5006639;28;20226;-76
2021/12/08 00:39:11;;;;;;;5.10;1.57;;;5.20;99.90;;;;;;5009494;28;20199;-76
2021/12/08 00:41:38;;;;;;;3.53;1.50;;;5.20;99.90;;;;;;5002674;28;20215;-76
2021/12/08 00:44:06;;;;;;;1.57;1.43;;;5.30;99.90;;;;;;5010564;28;20221;-76
2021/12/08 00:46:34;;;;;;;4.53;1.40;;;5.40;99.90;;;;;;5003282;28;20216;-76
2021/12/08 00:49:03;;;;;;;4.07;1.37;;;5.40;99.90;;;;;;5021741;28;20195;-76
2021/12/08 00:51:31;;;;;;;4.83;1.63;;;5.50;99.90;;;;;;5021762;28;20188;-76
2021/12/08 00:53:58;;;;;;;2.40;1.30;;;5.50;99.90;;;;;;5019900;28;20586;-76
2021/12/08 00:56:26;;;;;;;3.23;1.43;;;5.60;99.90;;;;;;5013640;28;20224;-76
2021/12/08 00:58:53;;;;;;;2.10;1.20;;;5.60;99.90;;;;;;5007228;28;20502;-75
2021/12/08 01:01:22;;;;;;;2.67;1.57;;;5.60;99.90;;;;;;5026809;28;20215;-76
2021/12/08 01:03:50;;;;;;;2.83;1.77;;;5.60;99.90;;;;;;5015870;28;20191;-76
2021/12/08 01:06:19;;;;;;;1.83;1.13;;;5.60;99.90;;;;;;5021143;28;20224;-76
2021/12/08 01:08:47;;;;;;;3.70;2.07;;;5.60;99.90;;;;;;5008398;28;20196;-75
2021/12/08 01:11:17;;;;;;;2.43;1.27;;;5.60;99.90;;;;;;5026018;28;20205;-76
2021/12/08 01:13:47;;;;;;;3.07;1.63;;;5.60;99.90;;;;;;5006080;28;20275;-76
2021/12/08 01:16:21;;;;;;;2.40;1.37;;;5.60;99.90;;;;;;5010244;28;20680;-76
2021/12/08 01:18:48;;;;;;;3.07;1.60;;;5.60;99.90;;;;;;5008927;28;20200;-76
2021/12/08 01:21:17;;;;;;;2.13;1.57;;;5.60;99.90;;;;;;5002829;28;20291;-76
2021/12/08 01:23:47;;;;;;;3.33;1.70;;;5.50;99.90;;;;;;5007166;28;20200;-76
2021/12/08 01:26:14;;;;;;;4.97;2.17;;;5.40;99.90;;;;;;5009748;28;20227;-76
2021/12/08 01:28:42;;;;;;;3.93;1.70;;;5.30;99.90;;;;;;5005286;28;20196;-76
2021/12/08 01:31:09;;;;;;;3.80;1.50;;;5.20;99.90;;;;;;5007981;28;20231;-76
2021/12/08 01:33:37;;;;;;;2.27;1.80;;;5.20;99.90;;;;;;5007666;28;20208;-76
2021/12/08 01:36:07;;;;;;;3.13;1.53;;;5.20;99.90;;;;;;5005124;28;20227;-76
2021/12/08 01:38:35;;;;;;;2.90;1.33;;;5.10;99.90;;;;;;5006824;28;20191;-76
2021/12/08 01:41:04;;;;;;;2.83;1.70;;;5.10;99.90;;;;;;5003996;28;20208;-76
2021/12/08 01:43:42;;;;;;;3.30;2.00;;;5.10;99.90;;;;;;5019663;28;20219;-76
2021/12/08 01:46:10;;;;;;;4.43;1.63;;;5.10;99.90;;;;;;5004466;28;20216;-75
2021/12/08 01:48:40;;;;;;;3.60;1.60;;;5.00;99.90;;;;;;5003906;28;20206;-76
2021/12/08 01:51:11;;;;;;;4.97;2.10;;;5.00;99.90;;;;;;5006367;28;20201;-76
2021/12/08 01:53:39;;;;;;;3.47;1.40;;;5.10;99.90;;;;;;4998237;28;20203;-76
2021/12/08 01:56:09;;;;;;;2.27;1.70;;;5.10;99.90;;;;;;5008179;28;20682;-76
2021/12/08 01:58:37;;;;;;;1.20;0.90;;;5.10;99.90;;;;;;5004053;28;20203;-76
2021/12/08 02:01:08;;;;;;;2.23;1.50;;;5.20;99.90;;;;;;5006693;28;20978;-76
2021/12/08 02:03:36;;;;;;;2.43;1.70;;;5.40;99.90;;;;;;5025207;28;20195;-76
2021/12/08 02:06:06;;;;;;;2.20;2.00;;;5.30;99.90;;;;;;5023567;28;20740;-76
2021/12/08 02:08:35;;;;;;;2.20;1.83;;;5.20;99.90;;;;;;5024545;28;20562;-76
2021/12/08 02:11:03;;;;;;;3.33;2.00;;;5.20;99.90;;;;;;5028646;28;20199;-76
2021/12/08 02:13:38;;;;;;;1.97;1.70;;;5.20;99.90;;;;;;5030162;28;20662;-76
2021/12/08 02:16:08;;;;;;;3.27;2.17;;;5.20;99.90;;;;;;5030211;28;20244;-76
2021/12/08 02:18:35;;;;;;;2.87;1.77;;;5.20;99.90;;;;;;5016249;28;20208;-76
2021/12/08 02:21:19;;;;;;;2.43;1.70;;;5.20;99.90;;;;;;5012266;28;20189;-76
2021/12/08 02:23:47;;;;;;;2.67;1.40;;;5.20;99.90;;;;;;5008777;28;20196;-76
2021/12/08 02:26:14;;;;;;;2.30;2.10;;;5.20;99.90;;;;;;5010441;28;20242;-76
2021/12/08 02:28:42;;;;;;;4.73;2.13;;;5.20;99.90;;;;;;5004149;28;20197;-75
2021/12/08 02:31:13;;;;;;;1.33;1.23;;;5.30;99.90;;;;;;5023792;28;20210;-76
2021/12/08 02:47:43;;;;;;;1.43;1.33;;;5.60;99.90;;;;;;5005495;28;20208;-76
2021/12/08 02:50:11;;;;;;;3.30;1.90;;;5.60;99.90;;;;;;5007686;28;20200;-76
2021/12/08 02:52:40;;;;;;;2.13;1.93;;;5.60;99.90;;;;;;5005534;28;20204;-76
2021/12/08 02:55:09;;;;;;;2.00;1.80;;;5.60;99.90;;;;;;5007868;28;20659;-76
2021/12/08 02:57:36;;;;;;;2.30;2.10;;;5.60;99.90;;;;;;5008515;28;20227;-76
2021/12/08 03:00:06;;;;;;;1.70;1.60;;;5.60;99.90;;;;;;5008950;28;20201;-76
2021/12/08 03:02:34;;;;;;;2.30;2.10;;;5.70;99.90;;;;;;5027757;28;20606;-76
2021/12/08 03:05:02;;;;;;;2.87;1.90;;;5.60;99.90;;;;;;5008168;28;20204;-76
2021/12/08 03:07:30;;;;;;;1.70;1.60;;;5.70;99.90;;;;;;5028579;28;20243;-76
2021/12/08 03:10:05;;;;;;;4.60;2.20;;;5.80;99.90;;;;;;5028792;28;20209;-76
2021/12/08 03:12:32;;;;;;;1.87;1.73;;;5.80;99.90;;;;;;5028571;28;20196;-76
2021/12/08 03:15:00;;;;;;;2.17;1.77;;;5.80;99.90;;;;;;5006983;28;20200;-76
2021/12/08 03:17:27;;;;;;;2.17;1.67;;;5.80;99.90;;;;;;5011031;28;20238;-76
2021/12/08 03:19:54;;;;;;;3.00;1.87;;;5.80;99.90;;;;;;5005749;28;20207;-75
2021/12/08 03:22:23;;;;;;;2.33;1.87;;;5.80;99.90;;;;;;5028612;28;20546;-76
2021/12/08 03:24:52;;;;;;;2.20;2.00;;;5.90;99.90;;;;;;5005582;28;20219;-76
2021/12/08 03:27:27;;;;;;;2.53;1.67;;;5.90;99.90;;;;;;5007245;28;20229;-76
2021/12/08 03:29:58;;;;;;;4.40;1.90;;;5.90;99.90;;;;;;5008333;28;20205;-75
2021/12/08 03:32:33;;;;;;;3.73;1.70;;;5.90;99.90;;;;;;5006969;28;20209;-75
2021/12/08 03:35:00;;;;;;;2.13;1.70;;;6.00;99.90;;;;;;4999445;28;20209;-75
2021/12/08 03:37:30;;;;;;;3.57;1.80;;;6.00;99.90;;;;;;5024506;28;20215;-76
2021/12/08 03:40:00;;;;;;;3.67;1.70;;;6.10;99.90;;;;;;5008024;28;20194;-75
2021/12/08 03:42:34;;;;;;;2.07;1.27;;;6.10;99.90;;;;;;5010541;28;20232;-75
2021/12/08 03:45:06;;;;;;;1.97;1.47;;;6.20;99.90;;;;;;5025835;28;20188;-75
2021/12/08 03:47:33;;;;;;;1.80;1.40;;;6.30;99.90;;;;;;5010961;28;20224;-76
2021/12/08 03:50:03;;;;;;;2.03;1.30;;;6.30;99.90;;;;;;5011741;28;20192;-75
2021/12/08 03:52:31;;;;;;;2.70;1.40;;;6.30;99.90;;;;;;5005925;28;20191;-76
2021/12/08 03:55:00;;;;;;;2.23;1.40;;;6.30;99.90;;;;;;5005441;28;20210;-75
2021/12/08 03:57:31;;;;;;;1.70;1.23;;;6.40;99.90;;;;;;5016759;28;20225;-75
2021/12/08 03:59:58;;;;;;;1.73;1.60;;;6.50;99.90;;;;;;5025332;28;20695;-75
2021/12/08 04:02:26;;;;;;;2.70;1.27;;;6.50;99.90;;;;;;5010961;28;20218;-76
2021/12/08 04:04:54;;;;;;;3.70;1.50;;;6.50;99.90;;;;;;5027245;28;20208;-78
2021/12/08 04:07:21;;;;;;;5.23;2.00;;;6.50;99.90;;;;;;5026583;28;20314;-78
2021/12/08 04:09:50;;;;;;;2.70;1.43;;;6.50;99.90;;;;;;5008414;28;20207;-78
2021/12/08 04:12:19;;;;;;;4.10;1.57;;;6.50;99.90;;;;;;5028831;28;20206;-77
2021/12/08 04:14:52;;;;;;;1.70;1.33;;;6.60;99.90;;;;;;5013201;28;20206;-78
2021/12/08 04:17:24;;;;;;;6.53;1.80;;;6.50;99.90;;;;;;5013685;28;20246;-78
2021/12/08 04:19:53;;;;;;;3.00;1.30;;;6.50;99.90;;;;;;5014749;28;20204;-78
2021/12/08 04:22:25;;;;;;;4.20;1.17;;;6.50;99.90;;;;;;5030321;28;20214;-78
2021/12/08 04:24:54;;;;;;;3.30;1.70;;;6.50;99.90;;;;;;5029416;28;20213;-78
2021/12/08 04:27:25;;;;;;;2.57;1.70;;;6.50;99.90;;;;;;5000310;28;20224;-78
2021/12/08 04:29:55;;;;;;;2.30;1.30;;;6.60;99.90;;;;;;5028833;28;20221;-78
2021/12/08 04:32:26;;;;;;;2.90;1.50;;;6.50;99.90;;;;;;5007662;28;20222;-78
2021/12/08 04:34:58;;;;;;;3.47;1.40;;;6.60;99.90;;;;;;5007446;28;20199;-78
2021/12/08 04:37:31;;;;;;;4.57;1.40;;;6.60;99.90;;;;;;5028857;28;20218;-78
2021/12/08 04:40:13;;;;;;;5.47;1.40;;;6.60;99.90;;;;;;5023358;28;20214;-78
2021/12/08 04:43:02;;;;;;;4.30;1.53;;;6.60;99.90;;;;;;5025783;28;20218;-76
2021/12/08 04:45:40;;;;;;;4.40;1.53;;;6.60;99.90;;;;;;5008116;28;20289;-76
2021/12/08 04:48:26;;;;;;;2.83;1.60;;;6.50;99.90;;;;;;5007212;28;20212;-76
2021/12/08 04:51:25;;;;;;;2.30;1.37;;;6.50;99.90;;;;;;5004829;28;20213;-76
2021/12/08 05:02:34;;;;;;;2.50;1.63;;;6.50;99.90;;;;;;5014370;28;20221;-78
2021/12/08 05:05:15;;;;;;;4.80;1.70;;;6.50;99.90;;;;;;5004432;28;20204;-78
2021/12/08 05:07:52;;;;;;;2.37;1.40;;;6.40;99.90;;;;;;5004940;28;20728;-76
2021/12/08 05:10:25;;;;;;;2.30;1.50;;;6.40;99.90;;;;;;5001151;28;20197;-76
2021/12/08 05:12:53;;;;;;;2.23;1.60;;;6.40;99.90;;;;;;5022957;28;20193;-76
2021/12/08 05:15:24;;;;;;;2.87;1.50;;;6.40;99.90;;;;;;5024106;28;20215;-76
2021/12/08 05:17:58;;;;;;;4.10;1.93;;;6.40;99.90;;;;;;5003479;28;20202;-76
2021/12/08 05:20:31;;;;;;;4.97;1.90;;;6.40;99.90;;;;;;5007121;28;20195;-76
2021/12/08 05:23:01;;;;;;;2.13;1.53;;;6.40;99.90;;;;;;5023809;28;20225;-76
2021/12/08 05:25:32;;;;;;;3.30;2.07;;;6.40;99.90;;;;;;5002705;28;20185;-76
2021/12/08 05:28:02;;;;;;;5.33;1.90;;;6.40;99.90;;;;;;5004342;28;20209;-76
2021/12/08 05:30:32;;;;;;;3.03;1.73;;;6.40;99.90;;;;;;5002900;28;20207;-76
2021/12/08 05:33:03;;;;;;;4.37;2.30;;;6.40;99.90;;;;;;5005887;28;20203;-76
2021/12/08 05:35:34;;;;;;;3.73;1.83;;;6.30;99.90;;;;;;5024256;28;20201;-75
2021/12/08 05:38:01;;;;;;;3.57;1.90;;;6.30;99.90;;;;;;5022927;28;20207;-76
2021/12/08 05:40:33;;;;;;;4.57;1.93;;;6.40;99.90;;;;;;5018653;28;20669;-76
2021/12/08 05:43:01;;;;;;;1.87;1.70;;;6.40;99.90;;;;;;5023198;28;20226;-76
2021/12/08 05:45:28;;;;;;;3.77;1.73;;;6.40;99.90;;;;;;5008682;28;20216;-76
2021/12/08 05:47:57;;;;;;;2.97;2.00;;;6.40;99.90;;;;;;5026900;28;20206;-75
2021/12/08 05:50:45;;;;;;;5.23;2.30;;;6.40;99.90;;;;;;5030633;28;20206;-76
2021/12/08 05:53:13;;;;;;;3.77;1.80;;;6.30;99.90;;;;;;5016430;28;20196;-76
2021/12/08 05:55:42;;;;;;;4.53;2.00;;;6.30;99.90;;;;;;5012082;28;20221;-76
2021/12/08 05:58:11;;;;;;;4.20;2.07;;;6.30;99.90;;;;;;5023822;28;20206;-75
2021/12/08 06:00:43;;;;;;;2.53;2.00;;;6.30;99.90;;;;;;5023116;28;20202;-76
2021/12/08 06:03:25;;;;;;;4.87;1.90;;;6.30;99.90;;;;;;5004240;28;20222;-76
2021/12/08 06:05:57;;;;;;;5.57;2.50;;;6.30;99.90;;;;;;5020734;28;20230;-76
2021/12/08 06:08:27;;;;;;;4.60;2.10;;;6.30;99.90;;;;;;5013463;28;20194;-76
2021/12/08 06:10:56;;;;;;;3.70;2.10;;;6.20;99.90;;;;;;5011109;28;20213;-76
2021/12/08 06:13:23;;;;;;;5.17;2.40;;;6.20;99.90;;;;;;5009906;28;20195;-76
2021/12/08 06:15:51;;;;;;;5.33;2.67;;;6.20;99.90;;;;;;5019659;28;20234;-76
2021/12/08 06:18:23;;;;;;;3.77;2.37;;;6.20;99.90;;;;;;5000901;28;20210;-76
2021/12/08 06:20:58;;;;;;;4.73;2.80;;;6.10;99.90;;;;;;5023646;28;20206;-76
2021/12/08 06:23:26;;;;;;;2.70;2.47;;;6.10;99.90;;;;;;5006225;28;20214;-75
2021/12/08 06:25:54;;;;;;;3.00;2.10;;;6.20;99.90;;;;;;5013250;28;20696;-75
2021/12/08 06:28:21;;;;;;;4.27;3.43;;;8.20;99.90;;;;;;5004212;28;20210;-75
2021/12/08 06:30:49;;;;;;;3.83;2.40;;;8.80;99.90;;;;;;5024378;28;20213;-74
2021/12/08 06:33:19;;;;;;;4.87;2.47;;;9.10;99.90;;;;;;5009759;28;20653;-76
2021/12/08 06:36:20;;;;;;;;;;;;;;;;;;;;;
2021/12/08 06:39:00;;;;;;;3.47;2.33;;;6.50;99.90;;;;;;4982643;28;20202;-76
2021/12/08 06:41:31;;;;;;;4.77;3.20;;;6.20;99.90;;;;;;5022607;28;20618;-76
2021/12/08 06:44:06;;;;;;;5.10;3.17;;;6.20;99.90;;;;;;5007751;28;20215;-76
2021/12/08 06:46:49;;;;;;;2.70;2.30;;;6.20;99.90;;;;;;5005182;28;20707;-76
2021/12/08 06:49:19;;;;;;;4.23;2.53;;;6.10;99.90;;;;;;5010739;28;20198;-76
2021/12/08 06:51:52;;;;;;;6.07;2.93;;;6.10;99.90;;;;;;5000220;28;20199;-76
2021/12/08 06:54:29;;;;;;;4.57;2.87;;;6.10;99.90;;;;;;5009199;28;20201;-76
2021/12/08 06:56:59;;;;;;;6.00;2.83;;;6.10;99.90;;;;;;5010896;28;20228;-76
2021/12/08 06:59:34;;;;;;;5.53;3.20;;;6.00;99.90;;;;;;5004939;28;20206;-76
2021/12/08 07:02:09;;;;;;;5.80;3.30;;;6.00;99.90;;;;;;5002054;28;20197;-76
2021/12/08 07:04:55;;;;;;;4.47;3.10;;;6.00;99.90;;;;;;5013649;28;20216;-77
2021/12/08 07:07:30;;;;;;;5.93;2.30;;;6.00;99.90;;;;;;5009239;28;20214;-76
2021/12/08 07:10:05;;;;;;;4.50;2.70;;;6.00;99.90;;;;;;5023715;28;20589;-77
2021/12/08 07:12:36;;;;;;;5.80;2.50;;;6.00;99.90;;;;;;5012168;28;20686;-77
2021/12/08 07:15:11;;;;;;;9.27;3.70;;;6.00;99.90;;;;;;5012568;28;20210;-76
2021/12/08 07:17:43;;;;;;;4.77;2.73;;;6.00;99.90;;;;;;5010829;28;20249;-77
2021/12/08 07:20:25;;;;;;;3.87;2.37;;;6.00;99.90;;;;;;5025409;28;20197;-76
2021/12/08 07:22:54;;;;;;;5.17;2.93;;;6.00;99.90;;;;;;5015842;28;20217;-77
2021/12/08 07:25:25;;;;;;;5.03;2.33;;;6.00;99.90;;;;;;5020039;28;20214;-77
2021/12/08 07:27:53;;;;;;;4.90;2.83;;;6.10;99.90;;;;;;5024325;28;20199;-77
2021/12/08 07:30:24;;;;;;;6.57;3.10;;;6.00;99.90;;;;;;5017648;28;20201;-77
2021/12/08 07:33:01;;;;;;;4.90;2.77;;;6.00;99.90;;;;;;5005613;28;20213;-76
2021/12/08 07:35:32;;;;;;;3.20;2.30;;;6.00;99.90;;;;;;5009014;28;20198;-74
2021/12/08 07:38:00;;;;;;;5.93;2.63;;;6.00;99.90;;;;;;5009886;28;20216;-76
2021/12/08 07:40:33;;;;;;;5.20;2.97;;;6.10;99.90;;;;;;5026213;28;20233;-76
2021/12/08 07:43:04;;;;;;;4.90;2.80;;;6.10;99.90;;;;;;5009347;28;20210;-76
2021/12/08 07:45:44;;;;;;;5.33;2.67;;;6.10;99.90;;;;;;5010353;28;20218;-76
2021/12/08 07:48:15;;;;;;;4.47;2.00;;;6.10;99.90;;;;;;5008038;28;20205;-77
2021/12/08 07:50:46;;;;;;;4.90;2.97;;;6.20;99.90;;;;;;5012938;28;20207;-77
2021/12/08 07:53:16;;;;;;;4.87;2.70;;;6.10;99.90;;;;;;5027611;28;20206;-77
2021/12/08 07:55:49;;;;;;;6.50;2.60;;;6.20;99.90;;;;;;5011757;28;20221;-76
2021/12/08 07:58:19;;;;;;;6.43;2.57;;;6.20;99.90;;;;;;5027903;28;20199;-77
2021/12/08 08:00:50;;;;;;;4.90;2.00;;;6.20;99.90;;;;;;4996155;28;20199;-76
2021/12/08 08:03:20;;;;;;;6.07;2.60;;;6.30;99.90;;;;;;5008836;28;20195;-77
2021/12/08 08:05:49;;;;;;;5.27;2.30;;;6.30;99.90;;;;;;5006583;28;20222;-76
2021/12/08 08:08:18;;;;;;;6.30;2.33;;;6.30;99.90;;;;;;5024474;28;20215;-77
2021/12/08 08:11:00;;;;;;;4.43;2.57;;;6.30;99.90;;;;;;5026534;28;20211;-76
2021/12/08 08:13:30;;;;;;;5.10;2.07;;;6.30;99.90;;;;;;5010097;28;20193;-76
2021/12/08 08:16:04;;;;;;;3.73;1.90;;;6.30;99.90;;;;;;5033797;28;20226;-77
2021/12/08 08:18:34;;;;;;;4.50;1.87;;;6.30;99.90;;;;;;5007330;28;20214;-77
2021/12/08 08:21:09;;;;;;;4.73;2.40;;;6.30;99.90;;;;;;5023711;28;20209;-77
2021/12/08 08:23:37;;;;;;;6.07;2.00;;;6.40;99.90;;;;;;5000571;28;20207;-77
2021/12/08 08:26:09;;;;;;;3.20;1.87;;;6.40;99.90;;;;;;5026442;28;20617;-77
2021/12/08 08:28:37;;;;;;;4.67;1.80;;;6.40;99.90;;;;;;4999472;28;21650;-77
2021/12/08 08:31:09;;;;;;;4.83;1.90;;;6.40;99.90;;;;;;5025109;28;20199;-77
2021/12/08 08:33:39;;;;;;;7.27;2.10;;;6.50;99.90;;;;;;5022981;28;20202;-77
2021/12/08 08:36:11;;;;;;;7.53;2.00;;;6.50;99.90;;;;;;5020194;28;20218;-77
2021/12/08 08:38:42;;;;;;;5.50;1.70;;;6.50;99.90;;;;;;5009610;28;20205;-77
2021/12/08 08:41:16;;;;;;;7.10;1.83;;;6.60;99.90;;;;;;5027757;28;20198;-77
2021/12/08 08:43:45;;;;;;;5.17;1.20;;;6.60;99.90;;;;;;5028389;28;20202;-77
2021/12/08 08:46:18;;;;;;;5.03;1.77;;;6.60;99.90;;;;;;5026428;28;20235;-77
2021/12/08 08:48:51;;;;;;;3.17;1.67;;;6.60;99.90;;;;;;5027996;28;20727;-77
2021/12/08 08:51:24;;;;;;;6.33;2.43;;;6.60;99.90;;;;;;5012187;28;20666;-77
2021/12/08 08:53:55;;;;;;;4.57;2.30;;;6.60;99.90;;;;;;5009388;28;20211;-77
2021/12/08 08:56:28;;;;;;;4.97;2.10;;;6.70;99.90;;;;;;5009709;28;20208;-77
2021/12/08 08:58:59;;;;;;;6.53;2.30;;;6.60;99.90;;;;;;5007544;28;20211;-77
2021/12/08 09:01:30;;;;;;;6.50;2.10;;;6.70;99.90;;;;;;5013332;28;20198;-77
2021/12/08 09:04:02;;;;;;;3.67;1.80;;;6.90;99.90;;;;;;4999801;28;20227;-77
2021/12/08 09:06:32;;;;;;;2.60;2.03;;;6.70;99.90;;;;;;5006579;28;20233;-77
2021/12/08 09:09:03;;;;;;;4.17;2.10;;;6.70;99.90;;;;;;5008565;28;20788;-77
2021/12/08 09:11:37;;;;;;;5.03;1.97;;;6.70;99.90;;;;;;5023846;28;20210;-78
2021/12/08 09:14:15;;;;;;;4.87;2.27;;;6.60;99.90;;;;;;5005728;28;20542;-77
2021/12/08 09:16:46;;;;;;;6.07;2.43;;;6.60;99.90;;;;;;5006109;28;20572;-76
2021/12/08 09:19:19;;;;;;;7.60;2.47;;;6.60;99.90;;;;;;5007086;28;20197;-76
2021/12/08 09:21:55;;;;;;;4.20;2.17;;;6.60;99.90;;;;;;4999096;28;20673;-75
2021/12/08 09:24:33;;;;;;;5.70;2.30;;;6.60;99.90;;;;;;5007151;28;20212;-76
2021/12/08 09:27:05;;;;;;;3.70;2.17;;;6.60;99.90;;;;;;5028592;28;20219;-76
2021/12/08 09:29:43;;;;;;;5.03;1.80;;;6.60;99.90;;;;;;5012755;28;20203;-77
2021/12/08 09:32:16;;;;;;;7.50;2.30;;;6.60;99.90;;;;;;5029394;28;20237;-74
2021/12/08 09:34:57;;;;;;;4.97;2.10;;;6.60;99.90;;;;;;5011243;28;20206;-77
2021/12/08 09:37:27;;;;;;;5.57;2.40;;;6.60;99.90;;;;;;5012118;28;20248;-81
2021/12/08 09:39:57;;;;;;;4.40;2.30;;;6.70;99.90;;;;;;4999669;28;20226;-78
2021/12/08 09:42:31;;;;;;;5.60;2.27;;;6.70;99.90;;;;;;5015117;28;20217;-78
2021/12/08 09:45:05;;;;;;;4.47;2.70;;;6.80;99.90;;;;;;5009087;28;20219;-77
2021/12/08 09:47:35;;;;;;;5.33;2.30;;;6.80;99.90;;;;;;5006735;28;20219;-78
2021/12/08 09:50:07;;;;;;;3.43;2.70;;;6.80;99.90;;;;;;5019205;28;20204;-77
2021/12/08 09:52:35;;;;;;;5.03;2.33;;;6.70;99.90;;;;;;5023935;28;20209;-77
2021/12/08 09:55:06;;;;;;;6.23;2.70;;;6.70;99.90;;;;;;4993476;28;20207;-76
2021/12/08 09:57:35;;;;;;;4.10;2.60;;;6.70;99.90;;;;;;5001445;28;20216;-76
2021/12/08 10:00:05;;;;;;;6.53;2.67;;;6.70;99.90;;;;;;5012551;28;20206;-77
2021/12/08 10:02:34;;;;;;;5.43;3.17;;;6.70;99.90;;;;;;5007809;28;20211;-77
2021/12/08 10:05:07;;;;;;;4.73;2.13;;;6.80;99.90;;;;;;5003286;28;20214;-75
2021/12/08 10:07:34;;;;;;;6.17;2.57;;;6.80;99.90;;;;;;5008027;28;20218;-77
2021/12/08 10:10:02;;;;;;;6.20;3.37;;;6.80;99.90;;;;;;5006881;28;20210;-76
2021/12/08 10:12:33;;;;;;;5.57;2.50;;;6.80;99.90;;;;;;5013070;28;20203;-78
2021/12/08 10:15:02;;;;;;;8.30;2.40;;;6.80;99.90;;;;;;5011936;28;20665;-77
2021/12/08 10:17:30;;;;;;;5.27;2.27;;;7.00;99.90;;;;;;5014064;28;20230;-77
2021/12/08 10:20:16;;;;;;;6.77;2.73;;;7.00;99.90;;;;;;5021965;28;20199;-76
2021/12/08 10:22:47;;;;;;;5.77;2.47;;;7.00;99.90;;;;;;5010926;28;20195;-77
2021/12/08 10:25:24;;;;;;;5.63;2.33;;;7.10;99.90;;;;;;5010197;28;20203;-75
2021/12/08 10:28:07;;;;;;;4.27;2.13;;;7.00;99.90;;;;;;5010864;28;20210;-77
2021/12/08 10:30:41;;;;;;;6.70;2.47;;;6.90;99.90;;;;;;5006234;28;20205;-75
2021/12/08 10:33:46;;;;;;;5.57;2.77;;;6.90;99.90;;;;;;5007865;28;20199;-77
2021/12/08 10:36:35;;;;;;;6.80;2.50;;;6.90;99.90;;;;;;5024405;28;20227;-77
2021/12/08 10:39:09;;;;;;;6.00;2.50;;;6.90;99.90;;;;;;5010579;28;20213;-77
2021/12/08 10:41:55;;;;;;;4.17;2.80;;;6.90;99.90;;;;;;5031293;28;20202;-77
2021/12/08 10:44:25;;;;;;;7.40;2.50;;;6.90;99.90;;;;;;5028947;28;20210;-77
2021/12/08 10:46:58;;;;;;;6.23;2.50;;;6.90;99.90;;;;;;4995472;28;20232;-76
2021/12/08 10:54:24;;;;;;;6.70;2.00;;;6.90;99.90;;;;;;5013116;28;20209;-76
2021/12/08 10:55:04;;;;;;;6.50;2.20;;;6.90;99.90;;;;;;5028428;28;20210;-75
2021/12/08 10:57:34;;;;;;;6.17;2.43;;;6.90;99.90;;;;;;5027906;28;20219;-74
2021/12/08 11:00:07;;;;;;;7.27;2.77;;;6.90;99.90;;;;;;5010425;28;20199;-76
2021/12/08 11:02:49;;;;;;;6.57;2.67;;;7.00;99.90;;;;;;5027665;28;20218;-73
2021/12/08 11:05:53;;;;;;;7.07;2.30;;;7.00;99.90;;;;;;5005803;28;20202;-76
2021/12/08 11:08:26;;;;;;;5.93;2.80;;;7.00;99.90;;;;;;4982677;28;20202;-76
2021/12/08 11:10:57;;;;;;;6.00;2.60;;;7.00;99.90;;;;;;5023773;28;20206;-77
2021/12/08 11:13:27;;;;;;;3.27;1.73;;;7.00;99.90;;;;;;5020238;28;20207;-76
2021/12/08 11:16:17;;;;;;;7.00;1.90;;;7.00;99.90;;;;;;4997282;28;20222;-75
2021/12/08 11:18:48;;;;;;;8.53;2.73;;;7.10;99.90;;;;;;5011865;28;20763;-78
2021/12/08 11:21:21;;;;;;;6.03;2.40;;;8.60;99.90;;;;;;5011761;28;20195;-77
2021/12/08 11:23:52;;;;;;;5.13;2.03;;;9.60;99.90;;;;;;5009678;28;20200;-78
2021/12/08 11:26:27;;;;;;;4.17;1.63;;;8.70;99.90;;;;;;5010300;28;20227;-77
2021/12/08 11:28:59;;;;;;;7.10;1.90;;;7.50;99.90;;;;;;5002979;28;20211;-77
2021/12/08 11:31:31;;;;;;;2.83;1.80;;;7.20;99.90;;;;;;5023139;28;20203;-77
2021/12/08 11:34:03;;;;;;;6.10;1.80;;;7.20;99.90;;;;;;5010767;28;20271;-78
2021/12/08 11:36:33;;;;;;;7.20;2.07;;;7.20;99.90;;;;;;5000026;28;20231;-78
2021/12/08 11:39:06;;;;;;;7.17;1.90;;;7.20;99.90;;;;;;5003350;28;20203;-78
2021/12/08 11:41:39;;;;;;;5.90;2.07;;;7.10;99.90;;;;;;5005980;28;20195;-77
2021/12/08 11:44:16;;;;;;;7.80;1.87;;;7.20;99.90;;;;;;5034957;28;20198;-78
2021/12/08 11:46:47;;;;;;;5.07;1.83;;;7.20;99.90;;;;;;5002774;28;20230;-77
2021/12/08 11:49:16;;;;;;;9.30;2.90;;;7.30;99.90;;;;;;5009880;28;20579;-77
2021/12/08 11:52:05;;;;;;;7.17;2.30;;;7.30;99.90;;;;;;5009715;28;20209;-79
2021/12/08 11:54:48;;;;;;;4.27;1.93;;;7.60;99.90;;;;;;5009111;28;20218;-77
2021/12/08 11:57:19;;;;;;;4.43;2.57;;;7.50;99.90;;;;;;5005258;28;20224;-77
2021/12/08 12:00:00;;;;;;;6.77;1.90;;;7.60;99.90;;;;;;5029183;28;20566;-77
2021/12/08 12:02:38;;;;;;;8.00;2.03;;;7.50;99.90;;;;;;5014785;28;20187;-77
2021/12/08 12:05:10;;;;;;;3.00;2.00;;;7.60;99.90;;;;;;5014856;28;20191;-78
2021/12/08 12:07:39;;;;;;;5.73;1.90;;;7.60;99.90;;;;;;5037993;23;20236;-75
2021/12/08 12:10:08;;;;;;;4.13;1.87;;;7.60;99.90;;;;;;5025443;28;20199;-75
2021/12/08 12:12:37;;;;;;;5.87;2.27;;;7.60;99.90;;;;;;5024883;28;20206;-76
2021/12/08 12:15:05;;;;;;;5.67;2.57;;;7.60;99.90;;;;;;5033079;28;20203;-77
2021/12/08 12:17:32;;;;;;;5.43;2.40;;;7.50;99.90;;;;;;5025929;28;20226;-75
2021/12/08 12:20:05;;;;;;;5.43;1.60;;;7.60;99.90;;;;;;5036960;28;20207;-75
2021/12/08 12:22:45;;;;;;;4.17;2.00;;;7.60;99.90;;;;;;5025020;28;20198;-75
2021/12/08 12:25:42;;;;;;;6.43;1.90;;;7.60;99.90;;;;;;5030586;28;20200;-75
2021/12/08 12:28:25;;;;;;;3.93;1.93;;;7.50;99.90;;;;;;5026696;28;20226;-77
2021/12/08 12:31:06;;;;;;;6.83;2.17;;;7.50;99.90;;;;;;5023812;28;20210;-75
2021/12/08 12:33:42;;;;;;;4.40;1.40;;;7.60;99.90;;;;;;5023811;28;20672;-75
2021/12/08 12:36:20;;;;;;;10.50;2.00;;;7.60;99.90;;;;;;5030303;28;20686;-76
2021/12/08 12:38:50;;;;;;;4.83;2.20;;;7.50;99.90;;;;;;5030897;28;20202;-75
2021/12/08 12:41:27;;;;;;;5.93;2.00;;;7.50;99.90;;;;;;5027575;28;20228;-75
2021/12/08 12:44:14;;;;;;;6.30;1.97;;;7.50;99.90;;;;;;5027966;28;20214;-76
2021/12/08 12:47:13;;;;;;;4.77;1.73;;;7.80;99.90;;;;;;5044234;28;20237;-75
2021/12/08 12:49:43;;;;;;;4.23;1.60;;;7.80;99.90;;;;;;5033167;28;20206;-75
2021/12/08 12:52:13;;;;;;;2.90;1.43;;;8.10;99.90;;;;;;5026848;28;20256;-76
2021/12/08 12:55:08;;;;;;;4.20;1.70;;;8.10;99.90;;;;;;5022118;28;20210;-76
2021/12/08 12:58:16;;;;;;;4.43;1.57;;;8.20;99.90;;;;;;5034229;28;20234;-75
2021/12/08 13:00:49;;;;;;;6.50;1.80;;;8.20;99.90;;;;;;5017086;28;20198;-75
2021/12/08 13:03:39;;;;;;;4.63;1.50;;;8.10;99.90;;;;;;5013615;28;20210;-75
2021/12/08 13:06:07;;;;;;;4.03;1.40;;;8.20;99.90;;;;;;5024884;28;20214;-75
2021/12/08 13:12:26;;;;;;;3.50;1.70;;;8.50;99.90;;;;;;5019350;28;20168;-75
2021/12/08 13:15:21;;;;;;;3.20;1.10;;;8.60;99.90;;;;;;5028290;28;20647;-76
2021/12/08 13:18:03;;;;;;;6.80;1.57;;;8.60;99.90;;;;;;5025295;28;20219;-75
2021/12/08 13:20:34;;;;;;;4.10;1.70;;;8.30;99.90;;;;;;5020553;28;20202;-76
2021/12/08 13:23:10;;;;;;;4.00;1.60;;;8.50;99.90;;;;;;5043354;28;20207;-75
2021/12/08 13:25:55;;;;;;;5.40;1.50;;;8.30;99.90;;;;;;5026048;28;20206;-76
2021/12/08 13:28:50;;;;;;;3.37;1.70;;;8.20;99.90;;;;;;5016296;28;20213;-75
2021/12/08 13:31:30;;;;;;;4.17;1.70;;;8.40;99.90;;;;;;5027332;28;20202;-76
2021/12/08 13:34:01;;;;;;;8.20;1.80;;;8.30;99.90;;;;;;5022404;28;20687;-75
2021/12/08 13:36:33;;;;;;;4.67;1.60;;;8.20;99.90;;;;;;5022777;28;20229;-76
2021/12/08 13:39:11;;;;;;;5.23;1.60;;;8.10;99.90;;;;;;5019225;28;20218;-76
2021/12/08 13:41:40;;;;;;;4.97;1.50;;;8.10;99.90;;;;;;5038374;28;20673;-77
2021/12/08 13:44:23;;;;;;;5.37;1.90;;;8.00;99.90;;;;;;5023285;28;20222;-74
2021/12/08 13:46:53;;;;;;;4.20;1.77;;;8.10;99.90;;;;;;5041930;28;20596;-75
2021/12/08 13:49:24;;;;;;;3.87;1.40;;;8.10;99.90;;;;;;5021675;28;20198;-76
2021/12/08 13:52:15;;;;;;;6.30;2.03;;;8.00;99.90;;;;;;5039194;28;20217;-76
2021/12/08 13:54:44;;;;;;;4.17;1.33;;;7.90;99.90;;;;;;5025714;28;20199;-75
2021/12/08 13:57:38;;;;;;;5.03;1.70;;;7.80;99.90;;;;;;5029427;28;20234;-76
2021/12/08 14:00:39;;;;;;;6.10;1.40;;;7.80;99.90;;;;;;5015652;28;20202;-76